createdAt,value
2019-02-20T00:00:23.504Z,77.88
2019-02-20T00:02:49.338Z,77.99
2019-02-20T00:05:15.182Z,77.87
2019-02-20T00:07:41.033Z,77.95
2019-02-20T00:10:07.010Z,78.26
2019-02-20T00:12:32.837Z,78.22
2019-02-20T00:14:58.701Z,78.29
2019-02-20T00:17:24.500Z,78.46
2019-02-20T00:19:50.392Z,78.90
2019-02-20T00:22:16.346Z,78.72
2019-02-20T00:24:42.308Z,78.58
2019-02-20T00:27:08.145Z,78.47
2019-02-20T00:29:33.979Z,78.11
2019-02-20T00:31:59.834Z,77.71
2019-02-20T00:34:25.671Z,77.47
2019-02-20T00:36:51.516Z,77.49
2019-02-20T00:39:17.322Z,77.74
2019-02-20T00:41:43.160Z,77.70
2019-02-20T00:44:16.657Z,77.59
2019-02-20T00:46:44.427Z,77.61
2019-02-20T00:49:12.186Z,77.81
2019-02-20T00:51:42.617Z,78.09
2019-02-20T00:54:09.380Z,78.10
2019-02-20T00:56:35.529Z,77.87
2019-02-20T00:59:01.368Z,77.68
2019-02-20T01:01:27.320Z,77.17
2019-02-20T01:03:53.157Z,77.30
2019-02-20T01:06:18.997Z,77.29
2019-02-20T01:08:44.822Z,77.38
2019-02-20T01:11:10.767Z,77.26
2019-02-20T01:13:36.586Z,76.94
2019-02-20T01:16:02.439Z,77.03
2019-02-20T01:18:28.264Z,77.06
2019-02-20T01:20:54.135Z,77.41
2019-02-20T01:23:19.992Z,77.49
2019-02-20T01:25:45.806Z,77.74
2019-02-20T01:28:11.944Z,78.06
2019-02-20T01:30:37.766Z,78.08
2019-02-20T01:33:03.717Z,78.27
2019-02-20T01:35:29.552Z,78.47
2019-02-20T01:37:55.394Z,78.57
2019-02-20T01:40:21.216Z,79.07
2019-02-20T01:42:47.096Z,78.85
2019-02-20T01:45:12.917Z,78.80
2019-02-20T01:47:38.762Z,78.80
2019-02-20T01:50:06.193Z,78.69
2019-02-20T01:52:32.158Z,79.07
2019-02-20T01:54:58.025Z,78.98
2019-02-20T01:57:23.847Z,79.18
2019-02-20T01:59:49.720Z,79.25
2019-02-20T02:02:15.552Z,79.46
2019-02-20T02:04:41.504Z,79.51
2019-02-20T02:07:07.339Z,79.39
2019-02-20T02:09:33.213Z,79.53
2019-02-20T02:11:59.031Z,79.37
2019-02-20T02:14:24.986Z,79.47
2019-02-20T02:16:50.806Z,79.58
2019-02-20T02:19:16.639Z,79.66
2019-02-20T02:21:42.508Z,79.61
2019-02-20T02:24:08.463Z,79.55
2019-02-20T02:26:34.282Z,79.43
2019-02-20T02:29:00.113Z,79.40
2019-02-20T02:31:25.952Z,79.24
2019-02-20T02:33:52.581Z,78.97
2019-02-20T02:36:18.417Z,78.87
2019-02-20T02:38:44.231Z,78.73
2019-02-20T02:41:10.089Z,78.59
2019-02-20T02:43:35.911Z,78.50
2019-02-20T02:46:01.751Z,78.26
2019-02-20T02:48:27.591Z,78.03
2019-02-20T02:50:53.438Z,78.07
2019-02-20T02:53:19.264Z,77.79
2019-02-20T02:55:45.112Z,77.61
2019-02-20T02:58:10.932Z,77.38
2019-02-20T03:00:36.779Z,77.28
2019-02-20T03:03:02.686Z,77.28
2019-02-20T03:05:28.526Z,77.42
2019-02-20T03:07:54.366Z,77.42
2019-02-20T03:10:20.215Z,77.49
2019-02-20T03:12:46.040Z,77.63
2019-02-20T03:15:12.001Z,77.46
2019-02-20T03:17:37.864Z,77.46
2019-02-20T03:20:06.450Z,77.72
2019-02-20T03:22:32.271Z,77.68
2019-02-20T03:24:58.128Z,77.70
2019-02-20T03:27:23.940Z,77.66
2019-02-20T03:29:49.767Z,77.72
2019-02-20T03:32:15.600Z,77.64
2019-02-20T03:34:41.433Z,77.74
2019-02-20T03:37:07.270Z,77.59
2019-02-20T03:39:33.155Z,77.61
2019-02-20T03:41:59.461Z,77.46
2019-02-20T03:44:25.288Z,77.34
2019-02-20T03:46:51.164Z,77.16
2019-02-20T03:49:16.975Z,76.96
2019-02-20T03:51:42.809Z,76.90
2019-02-20T03:54:08.646Z,77.02
2019-02-20T03:56:34.503Z,76.76
2019-02-20T03:59:00.329Z,76.48
2019-02-20T04:01:26.190Z,76.55
2019-02-20T04:03:52.001Z,76.41
2019-02-20T04:06:17.858Z,76.06
2019-02-20T04:08:43.683Z,76.08
2019-02-20T04:11:09.523Z,75.84
2019-02-20T04:13:35.381Z,75.68
2019-02-20T04:16:01.212Z,75.64
2019-02-20T04:18:27.085Z,75.55
2019-02-20T04:20:52.926Z,75.38
2019-02-20T04:23:18.789Z,75.68
2019-02-20T04:25:44.643Z,75.71
2019-02-20T04:28:10.507Z,75.59
2019-02-20T04:30:36.350Z,75.97
2019-02-20T04:33:02.499Z,75.78
2019-02-20T04:35:28.327Z,75.72
2019-02-20T04:37:54.156Z,75.61
2019-02-20T04:40:19.991Z,75.84
2019-02-20T04:42:45.854Z,75.54
2019-02-20T04:45:11.672Z,75.58
2019-02-20T04:47:37.627Z,75.55
2019-02-20T04:50:06.467Z,75.55
2019-02-20T04:52:32.352Z,75.37
2019-02-20T04:54:58.172Z,75.32
2019-02-20T04:57:23.994Z,75.31
2019-02-20T04:59:49.806Z,74.83
2019-02-20T05:02:15.652Z,75.09
2019-02-20T05:04:41.622Z,75.02
2019-02-20T05:07:07.549Z,74.73
2019-02-20T05:09:33.816Z,74.72
2019-02-20T05:11:59.638Z,74.84
2019-02-20T05:14:25.494Z,74.80
2019-02-20T05:16:51.367Z,74.66
2019-02-20T05:19:17.287Z,74.76
2019-02-20T05:21:43.225Z,74.54
2019-02-20T05:24:09.063Z,74.60
2019-02-20T05:26:34.889Z,74.66
2019-02-20T05:29:00.730Z,74.79
2019-02-20T05:31:26.543Z,74.61
2019-02-20T05:33:52.392Z,74.89
2019-02-20T05:36:18.215Z,75.04
2019-02-20T05:38:44.084Z,75.45
2019-02-20T05:41:09.902Z,75.79
2019-02-20T05:43:35.755Z,75.52
2019-02-20T05:46:01.588Z,75.38
2019-02-20T05:48:27.413Z,75.79
2019-02-20T05:50:53.252Z,76.03
2019-02-20T05:53:19.059Z,76.39
2019-02-20T05:55:44.922Z,76.55
2019-02-20T05:58:10.855Z,76.89
2019-02-20T06:00:36.712Z,77.20
2019-02-20T06:03:04.789Z,77.26
2019-02-20T06:05:30.406Z,77.90
2019-02-20T06:07:56.424Z,77.84
2019-02-20T06:10:22.227Z,78.15
2019-02-20T06:12:48.065Z,78.73
2019-02-20T06:15:14.007Z,78.82
2019-02-20T06:17:39.803Z,78.94
2019-02-20T06:20:10.219Z,78.85
2019-02-20T06:22:36.120Z,78.61
2019-02-20T06:25:03.445Z,78.64
2019-02-20T06:27:29.321Z,78.46
2019-02-20T06:29:55.159Z,78.24
2019-02-20T06:32:21.013Z,78.06
2019-02-20T06:34:46.833Z,77.82
2019-02-20T06:37:12.783Z,77.89
2019-02-20T06:39:38.632Z,77.39
2019-02-20T06:42:04.528Z,77.55
2019-02-20T06:44:30.597Z,77.13
2019-02-20T06:46:56.475Z,77.23
2019-02-20T06:49:22.302Z,77.13
2019-02-20T06:51:48.165Z,77.20
2019-02-20T06:54:14.092Z,77.37
2019-02-20T06:56:39.943Z,77.70
2019-02-20T06:59:05.776Z,77.48
2019-02-20T07:01:31.756Z,76.92
2019-02-20T07:03:57.561Z,76.34
2019-02-20T07:06:38.870Z,76.15
2019-02-20T07:09:29.376Z,75.95
2019-02-20T07:12:28.843Z,75.71
2019-02-20T07:15:13.265Z,75.62
2019-02-20T07:17:45.928Z,75.76
2019-02-20T07:20:24.163Z,75.50
2019-02-20T07:23:06.055Z,74.90
2019-02-20T07:25:38.688Z,74.03
2019-02-20T07:28:23.607Z,74.28
2019-02-20T07:30:49.620Z,73.89
2019-02-20T07:33:15.471Z,73.68
2019-02-20T07:35:41.388Z,73.26
2019-02-20T07:38:07.324Z,73.03
2019-02-20T07:40:33.149Z,72.54
2019-02-20T07:42:59.008Z,71.93
2019-02-20T07:45:24.821Z,71.85
2019-02-20T07:47:50.684Z,71.60
2019-02-20T07:50:17.013Z,71.47
2019-02-20T07:52:42.853Z,71.59
2019-02-20T07:55:13.193Z,72.03
2019-02-20T07:57:36.535Z,72.34
2019-02-20T08:00:05.787Z,72.62
2019-02-20T08:02:31.601Z,73.12
2019-02-20T08:04:57.444Z,72.61
2019-02-20T08:07:23.280Z,72.62
2019-02-20T08:09:49.118Z,72.00
2019-02-20T08:12:14.934Z,72.09
2019-02-20T08:14:40.784Z,72.25
2019-02-20T08:17:06.605Z,71.84
2019-02-20T08:19:32.744Z,71.95
2019-02-20T08:21:58.710Z,71.46
2019-02-20T08:24:24.702Z,71.17
2019-02-20T08:26:50.798Z,70.54
2019-02-20T08:29:16.606Z,69.57
2019-02-20T08:31:42.463Z,68.20
2019-02-20T08:34:08.291Z,67.59
2019-02-20T08:36:34.255Z,66.00
2019-02-20T08:39:00.087Z,65.31
2019-02-20T08:41:25.954Z,64.42
2019-02-20T08:43:51.791Z,63.94
2019-02-20T08:46:17.652Z,63.63
2019-02-20T08:48:43.488Z,63.67
2019-02-20T08:51:09.349Z,63.73
2019-02-20T08:53:35.178Z,64.39
2019-02-20T08:56:01.165Z,64.23
2019-02-20T08:58:26.988Z,64.01
2019-02-20T09:00:52.965Z,64.26
2019-02-20T09:03:18.807Z,64.05
2019-02-20T09:05:44.674Z,63.36
2019-02-20T09:08:10.523Z,63.04
2019-02-20T09:10:36.388Z,63.08
2019-02-20T09:13:02.440Z,62.36
2019-02-20T09:15:28.253Z,61.54
2019-02-20T09:17:54.127Z,61.31
2019-02-20T09:20:20.002Z,59.70
2019-02-20T09:22:45.845Z,58.61
2019-02-20T09:25:19.603Z,58.06
2019-02-20T09:27:39.443Z,57.46
2019-02-20T09:30:09.085Z,57.15
2019-02-20T09:32:34.933Z,57.36
2019-02-20T09:35:00.801Z,58.47
2019-02-20T09:37:26.675Z,57.45
2019-02-20T09:39:52.496Z,56.67
2019-02-20T09:42:18.466Z,57.06
2019-02-20T09:44:44.889Z,57.86
2019-02-20T09:47:11.435Z,57.03
2019-02-20T09:49:37.268Z,57.14
2019-02-20T09:52:03.209Z,57.56
2019-02-20T09:54:29.088Z,56.97
2019-02-20T09:56:57.145Z,57.65
2019-02-20T09:59:23.215Z,56.82
2019-02-20T10:01:49.212Z,56.66
2019-02-20T10:04:15.053Z,54.88
2019-02-20T10:06:40.972Z,54.07
2019-02-20T10:09:06.989Z,51.79
2019-02-20T10:11:32.805Z,50.41
2019-02-20T10:13:58.665Z,50.19
2019-02-20T10:16:24.728Z,50.52
2019-02-20T10:18:50.586Z,49.11
2019-02-20T10:21:17.263Z,48.37
2019-02-20T10:23:45.270Z,45.85
2019-02-20T10:26:11.266Z,42.83
2019-02-20T10:28:37.127Z,41.51
2019-02-20T10:31:02.962Z,42.82
2019-02-20T10:33:28.807Z,43.21
2019-02-20T10:35:54.644Z,43.25
2019-02-20T10:38:20.461Z,40.59
2019-02-20T10:40:46.314Z,41.96
2019-02-20T10:43:12.132Z,39.85
2019-02-20T10:45:37.966Z,38.27
2019-02-20T10:48:03.917Z,34.68
2019-02-20T10:50:29.918Z,34.06
2019-02-20T10:52:55.877Z,35.28
2019-02-20T10:55:21.712Z,33.51
2019-02-20T10:57:47.539Z,31.78
2019-02-20T11:00:25.349Z,32.62
2019-02-20T11:02:51.280Z,32.26
2019-02-20T11:05:17.261Z,33.79
2019-02-20T11:07:43.086Z,33.71
2019-02-20T11:10:08.923Z,35.38
2019-02-20T11:12:34.787Z,37.08
2019-02-20T11:15:00.642Z,37.51
2019-02-20T11:17:26.466Z,36.57
2019-02-20T11:19:52.364Z,37.40
2019-02-20T11:22:18.301Z,37.29
2019-02-20T11:24:44.128Z,36.32
2019-02-20T11:27:09.989Z,34.93
2019-02-20T11:29:35.819Z,34.68
2019-02-20T11:32:01.797Z,32.57
2019-02-20T11:34:27.628Z,34.67
2019-02-20T11:36:53.486Z,35.19
2019-02-20T11:39:19.415Z,37.26
2019-02-20T11:41:45.273Z,36.68
2019-02-20T11:44:11.101Z,35.75
2019-02-20T11:46:36.967Z,33.32
2019-02-20T11:49:02.808Z,33.91
2019-02-20T11:51:28.683Z,32.69
2019-02-20T11:53:54.642Z,32.40
2019-02-20T11:56:26.468Z,32.76
2019-02-20T11:58:48.221Z,36.26
2019-02-20T12:01:14.389Z,36.62
2019-02-20T12:03:40.235Z,35.18
2019-02-20T12:06:06.196Z,32.02
2019-02-20T12:08:32.170Z,33.75
2019-02-20T12:10:57.996Z,29.29
2019-02-20T12:13:23.859Z,29.68
2019-02-20T12:15:50.009Z,32.46
2019-02-20T12:18:17.577Z,32.69
2019-02-20T12:20:43.639Z,35.35
2019-02-20T12:23:09.620Z,33.59
2019-02-20T12:25:35.547Z,30.95
2019-02-20T12:28:01.433Z,27.07
2019-02-20T12:30:27.389Z,26.23
2019-02-20T12:32:53.251Z,25.77
2019-02-20T12:35:19.081Z,26.67
2019-02-20T12:37:45.017Z,27.82
2019-02-20T12:40:10.980Z,27.16
2019-02-20T12:42:36.945Z,26.76
2019-02-20T12:45:04.917Z,25.12
2019-02-20T12:47:30.781Z,26.44
2019-02-20T12:49:56.783Z,23.39
2019-02-20T12:52:22.674Z,24.62
2019-02-20T12:54:48.545Z,24.88
2019-02-20T12:57:14.379Z,25.35
2019-02-20T12:59:40.262Z,28.04
2019-02-20T13:02:06.092Z,28.04
2019-02-20T13:04:31.957Z,25.93
2019-02-20T13:06:59.530Z,26.43
2019-02-20T13:09:25.641Z,26.85
2019-02-20T13:11:51.565Z,29.93
2019-02-20T13:14:17.396Z,30.95
2019-02-20T13:16:43.566Z,29.17
2019-02-20T13:19:09.459Z,29.78
2019-02-20T13:21:35.438Z,30.66
2019-02-20T13:24:01.380Z,27.53
2019-02-20T13:26:27.226Z,28.84
2019-02-20T13:28:53.102Z,31.44
2019-02-20T13:31:19.070Z,26.55
2019-02-20T13:33:44.916Z,28.18
2019-02-20T13:36:10.805Z,25.73
2019-02-20T13:38:36.632Z,25.80
2019-02-20T13:41:02.629Z,24.21
2019-02-20T13:43:28.469Z,27.34
2019-02-20T13:45:54.444Z,30.64
2019-02-20T13:48:20.293Z,34.52
2019-02-20T13:50:46.156Z,34.14
2019-02-20T13:53:14.189Z,35.39
2019-02-20T13:55:39.864Z,35.61
2019-02-20T13:58:05.823Z,27.25
2019-02-20T14:00:31.791Z,24.17
2019-02-20T14:02:57.621Z,28.29
2019-02-20T14:05:24.035Z,33.63
2019-02-20T14:07:49.873Z,31.97
2019-02-20T14:10:19.522Z,31.97
2019-02-20T14:12:45.591Z,30.67
2019-02-20T14:15:11.541Z,31.04
2019-02-20T14:17:37.499Z,34.99
2019-02-20T14:20:06.531Z,34.56
2019-02-20T14:22:32.402Z,30.90
2019-02-20T14:24:58.545Z,32.27
2019-02-20T14:27:24.397Z,34.54
2019-02-20T14:29:50.344Z,34.31
2019-02-20T14:32:16.207Z,32.78
2019-02-20T14:34:42.222Z,30.55
2019-02-20T14:37:08.176Z,29.72
2019-02-20T14:39:34.009Z,29.92
2019-02-20T14:42:01.041Z,29.43
2019-02-20T14:44:27.265Z,29.02
2019-02-20T14:46:53.525Z,32.08
2019-02-20T14:49:19.370Z,28.64
2019-02-20T14:51:45.209Z,29.37
2019-02-20T14:54:11.258Z,30.63
2019-02-20T14:56:37.187Z,30.50
2019-02-20T14:59:03.052Z,26.92
2019-02-20T15:01:28.982Z,27.91
2019-02-20T15:03:54.972Z,29.50
2019-02-20T15:06:20.836Z,31.07
2019-02-20T15:08:46.795Z,33.50
2019-02-20T15:11:12.754Z,34.04
2019-02-20T15:13:38.734Z,35.55
2019-02-20T15:16:04.595Z,37.17
2019-02-20T15:18:30.557Z,37.32
2019-02-20T15:20:56.542Z,37.50
2019-02-20T15:23:22.502Z,37.66
2019-02-20T15:25:48.391Z,38.92
2019-02-20T15:28:14.812Z,38.50
2019-02-20T15:30:40.846Z,39.57
2019-02-20T15:33:06.821Z,39.82
2019-02-20T15:35:32.701Z,40.78
2019-02-20T15:37:58.675Z,41.29
2019-02-20T15:40:24.963Z,41.75
2019-02-20T15:42:50.806Z,42.74
2019-02-20T15:45:16.778Z,44.03
2019-02-20T15:47:42.608Z,44.72
2019-02-20T15:50:11.543Z,45.23
2019-02-20T15:52:37.493Z,45.82
2019-02-20T15:55:05.272Z,46.58
2019-02-20T15:57:37.891Z,47.67
2019-02-20T15:59:59.018Z,47.33
2019-02-20T16:02:24.861Z,46.99
2019-02-20T16:04:50.782Z,48.00
2019-02-20T16:07:16.723Z,48.93
2019-02-20T16:09:42.818Z,48.15
2019-02-20T16:12:09.070Z,48.62
2019-02-20T16:14:35.039Z,49.18
2019-02-20T16:17:01.105Z,49.13
2019-02-20T16:19:27.042Z,49.05
2019-02-20T16:21:53.044Z,49.78
2019-02-20T16:24:18.899Z,50.64
2019-02-20T16:26:44.907Z,50.25
2019-02-20T16:29:10.726Z,50.63
2019-02-20T16:31:36.722Z,50.82
2019-02-20T16:34:02.950Z,51.21
2019-02-20T16:36:28.824Z,51.09
2019-02-20T16:38:54.820Z,51.25
2019-02-20T16:41:20.827Z,51.60
2019-02-20T16:43:48.599Z,52.34
2019-02-20T16:46:16.864Z,53.46
2019-02-20T16:48:43.211Z,52.78
2019-02-20T16:51:09.369Z,52.50
2019-02-20T16:53:35.536Z,52.97
2019-02-20T16:56:01.395Z,53.33
2019-02-20T16:58:27.282Z,54.91
2019-02-20T17:00:53.208Z,54.84
2019-02-20T17:03:19.213Z,54.96
2019-02-20T17:05:45.097Z,56.46
2019-02-20T17:08:11.062Z,56.98
2019-02-20T17:10:36.921Z,56.99
2019-02-20T17:13:03.082Z,57.84
2019-02-20T17:15:29.544Z,58.49
2019-02-20T17:17:55.437Z,60.22
2019-02-20T17:20:21.409Z,60.75
2019-02-20T17:22:47.383Z,61.09
2019-02-20T17:25:13.722Z,61.58
2019-02-20T17:27:39.732Z,61.76
2019-02-20T17:30:11.698Z,62.44
2019-02-20T17:32:37.665Z,62.90
2019-02-20T17:35:05.716Z,63.65
2019-02-20T17:37:31.766Z,64.44
2019-02-20T17:39:57.648Z,64.69
2019-02-20T17:42:23.588Z,65.42
2019-02-20T17:44:49.453Z,65.96
2019-02-20T17:47:15.404Z,66.12
2019-02-20T17:49:41.382Z,66.07
2019-02-20T17:52:07.272Z,66.33
2019-02-20T17:54:33.883Z,67.14
2019-02-20T17:56:59.700Z,67.43
2019-02-20T17:59:25.678Z,67.41
2019-02-20T18:01:51.732Z,67.59
2019-02-20T18:04:17.629Z,67.89
2019-02-20T18:06:43.605Z,67.75
2019-02-20T18:09:10.638Z,68.04
2019-02-20T18:11:36.499Z,68.46
2019-02-20T18:14:02.480Z,68.43
2019-02-20T18:16:28.383Z,68.85
2019-02-20T18:18:54.189Z,69.26
2019-02-20T18:21:20.169Z,69.58
2019-02-20T18:23:46.057Z,69.42
2019-02-20T18:26:12.082Z,69.64
2019-02-20T18:28:37.916Z,69.60
2019-02-20T18:31:03.894Z,69.43
2019-02-20T18:33:29.827Z,69.60
2019-02-20T18:35:55.699Z,69.81
2019-02-20T18:38:21.541Z,69.78
2019-02-20T18:40:47.364Z,69.83
2019-02-20T18:43:13.231Z,70.03
2019-02-20T18:45:39.200Z,70.39
2019-02-20T18:48:05.385Z,70.78
2019-02-20T18:50:31.259Z,70.90
2019-02-20T18:52:57.173Z,70.82
2019-02-20T18:55:23.121Z,70.93
2019-02-20T18:57:49.052Z,70.85
2019-02-20T19:00:21.370Z,70.86
2019-02-20T19:02:47.232Z,70.79
2019-02-20T19:05:13.596Z,70.63
2019-02-20T19:07:39.553Z,70.54
2019-02-20T19:10:18.268Z,70.60
2019-02-20T19:13:09.202Z,70.80
2019-02-20T19:15:41.942Z,70.88
2019-02-20T19:18:30.021Z,71.09
2019-02-20T19:21:23.986Z,71.20
2019-02-20T19:24:19.676Z,71.35
2019-02-20T19:27:07.626Z,71.61
2019-02-20T19:29:58.605Z,72.03
2019-02-20T19:32:40.530Z,72.42
2019-02-20T19:35:28.179Z,72.75
2019-02-20T19:38:09.704Z,73.29
2019-02-20T19:41:04.625Z,73.20
2019-02-20T19:43:34.286Z,73.01
2019-02-20T19:46:23.481Z,73.23
2019-02-20T19:49:08.429Z,73.36
2019-02-20T19:51:44.285Z,73.39
2019-02-20T19:54:20.161Z,73.82
2019-02-20T19:56:49.807Z,73.95
2019-02-20T19:59:22.133Z,74.04
2019-02-20T20:02:12.994Z,74.30
2019-02-20T20:04:45.670Z,74.55
2019-02-20T20:07:48.965Z,75.11
2019-02-20T20:10:39.904Z,75.12
2019-02-20T20:13:35.474Z,75.22
2019-02-20T20:16:20.151Z,75.57
2019-02-20T20:18:58.765Z,75.53
2019-02-20T20:21:45.051Z,75.69
2019-02-20T20:24:32.530Z,75.91
2019-02-20T20:27:25.298Z,76.44
2019-02-20T20:30:28.796Z,76.50
2019-02-20T20:33:04.211Z,76.61
2019-02-20T20:35:57.200Z,76.71
2019-02-20T20:38:32.624Z,76.92
2019-02-20T20:41:09.182Z,77.08
2019-02-20T20:43:54.516Z,77.03
2019-02-20T20:46:42.637Z,76.97
2019-02-20T20:49:18.117Z,77.32
2019-02-20T20:51:50.871Z,77.36
2019-02-20T20:54:29.419Z,77.30
2019-02-20T20:57:19.942Z,77.25
2019-02-20T20:59:52.306Z,77.43
2019-02-20T21:02:25.001Z,77.67
2019-02-20T21:05:23.788Z,77.78
2019-02-20T21:07:56.505Z,77.85
2019-02-20T21:10:28.907Z,77.98
2019-02-20T21:13:10.594Z,78.29
2019-02-20T21:16:00.884Z,78.25
2019-02-20T21:18:39.663Z,78.29
2019-02-20T21:21:15.424Z,78.34
2019-02-20T21:23:54.252Z,78.67
2019-02-20T21:26:58.969Z,78.61
2019-02-20T21:29:47.422Z,78.67
2019-02-20T21:32:23.426Z,78.89
2019-02-20T21:34:58.954Z,79.05
2019-02-20T21:37:37.337Z,78.98
2019-02-20T21:40:29.571Z,79.05
2019-02-20T21:43:21.881Z,79.02
2019-02-20T21:46:09.629Z,79.31
2019-02-20T21:48:59.072Z,79.08
2019-02-20T21:51:28.887Z,79.41
2019-02-20T21:54:04.337Z,79.23
2019-02-20T21:56:37.045Z,79.16
2019-02-20T21:59:15.484Z,79.24
2019-02-20T22:01:57.075Z,79.38
2019-02-20T22:04:32.834Z,79.79
2019-02-20T22:07:30.352Z,79.75
2019-02-20T22:10:08.804Z,79.76
2019-02-20T22:13:11.937Z,79.48
2019-02-20T22:15:47.888Z,79.68
2019-02-20T22:18:35.763Z,80.04
2019-02-20T22:21:11.299Z,79.89
2019-02-20T22:23:56.004Z,79.82
2019-02-20T22:26:34.601Z,79.98
2019-02-20T22:29:33.483Z,79.80
2019-02-20T22:32:03.190Z,79.93
2019-02-20T22:35:03.452Z,79.96
2019-02-20T22:37:47.907Z,80.15
2019-02-20T22:40:35.613Z,80.32
2019-02-20T22:43:31.908Z,80.38
2019-02-20T22:46:13.755Z,80.16
2019-02-20T22:48:58.385Z,80.72
2019-02-20T22:51:47.912Z,80.49
2019-02-20T22:54:44.608Z,80.29
2019-02-20T22:57:26.126Z,80.60
2019-02-20T23:00:34.623Z,80.63
2019-02-20T23:03:12.246Z,80.44
2019-02-20T23:05:48.113Z,80.70
2019-02-20T23:08:20.549Z,80.63
2019-02-20T23:11:08.608Z,80.58
2019-02-20T23:13:41.016Z,80.67
2019-02-20T23:16:06.910Z,80.59
2019-02-20T23:18:32.723Z,79.98
2019-02-20T23:20:58.682Z,79.49
2019-02-20T23:23:24.536Z,79.11
2019-02-20T23:25:50.389Z,79.26
2019-02-20T23:28:16.234Z,79.26
2019-02-20T23:30:42.063Z,79.57
2019-02-20T23:33:07.928Z,79.92
2019-02-20T23:35:33.763Z,80.02
2019-02-20T23:37:59.606Z,80.12
2019-02-20T23:40:27.609Z,80.17
2019-02-20T23:42:53.208Z,80.13
2019-02-20T23:45:19.205Z,80.15
2019-02-20T23:47:45.050Z,80.38
2019-02-20T23:50:11.070Z,80.38
2019-02-20T23:52:37.280Z,80.33
2019-02-20T23:55:05.051Z,80.32
2019-02-20T23:57:30.878Z,80.61
2019-02-20T23:59:57.138Z,80.48
